Pond Eddy, New York
Current Conditions -  °F | °C
As of 5:15 AM on Friday 31 Oct 2014 (Local Time) from KMSV Reporting Station
Clear Clear  
Wind Chill: -2°   Ceiling: Unl
Heat Index: -2°   Visibility: 10mi
Dew Point: -2°   Wind: 3mph
Humidity: 100%   Direction: 350°N
Pressure: 30"   Gusts: NA
Location:  41.44°N, 74.82°W
Report Text: KMSV 310915Z AUTO 35003KT 10SM CLR M02/M02 A3000 RMK AO1
Loading
Personal Weather Stations






























Interactive Weather Map
Tropical Storm Tracking
New forecast layout! Learn more

10-Day Weather Forecast

Advertisements
Track Severe Weather on mobile